Time;durP1;ratioP1;P1;durP2;ratioP2;P2;SDS_P1;SDS_P2;PMS_P1;PMS_P2;Temp;Humidity;BMP_temperature;BMP_pressure;BME280_temperature;BME280_humidity;BME280_pressure;Samples;Min_cycle;Max_cycle;Signal;HPM_P1;HPM_P2
2021/05/21 00:00:20;;;;;;;3.50;1.92;;;;;;;;;;5054470;28;20375;-59
2021/05/21 00:02:46;;;;;;;2.42;1.25;;;;;;;;;;5037675;28;20029;-58
2021/05/21 00:05:15;;;;;;;3.03;1.98;;;;;;;;;;5037202;28;20116;-59
2021/05/21 00:07:41;;;;;;;2.42;1.60;;;;;;;;;;5053717;28;20028;-59
2021/05/21 00:10:08;;;;;;;2.35;1.40;;;;;;;;;;5055306;28;20028;-59
2021/05/21 00:12:34;;;;;;;1.98;1.23;;;;;;;;;;5055649;28;20057;-59
2021/05/21 00:15:00;;;;;;;3.88;1.70;;;;;;;;;;5055778;28;20052;-59
2021/05/21 00:17:26;;;;;;;4.70;1.88;;;;;;;;;;5037404;28;20115;-58
2021/05/21 00:19:52;;;;;;;2.70;1.67;;;;;;;;;;5054892;28;20546;-59
2021/05/21 00:22:19;;;;;;;2.08;1.30;;;;;;;;;;5037520;28;20055;-59
2021/05/21 00:24:48;;;;;;;2.75;1.50;;;;;;;;;;5055118;28;20386;-58
2021/05/21 00:27:14;;;;;;;2.67;1.35;;;;;;;;;;5055250;28;20047;-59
2021/05/21 00:29:40;;;;;;;1.83;0.85;;;;;;;;;;5054676;28;20485;-59
2021/05/21 00:32:14;;;;;;;2.13;1.17;;;;;;;;;;5036810;28;20025;-59
2021/05/21 00:34:43;;;;;;;1.65;1.10;;;;;;;;;;5054976;28;20052;-58
2021/05/21 00:37:09;;;;;;;1.95;0.90;;;;;;;;;;5036667;28;20104;-59
2021/05/21 00:39:38;;;;;;;2.55;1.40;;;;;;;;;;5037003;28;20374;-59
2021/05/21 00:42:07;;;;;;;2.58;1.58;;;;;;;;;;5037278;28;20052;-59
2021/05/21 00:44:36;;;;;;;2.03;1.10;;;;;;;;;;5070382;28;20021;-58
2021/05/21 00:47:03;;;;;;;1.70;1.02;;;;;;;;;;5054711;28;20025;-59
2021/05/21 00:49:34;;;;;;;2.50;1.17;;;;;;;;;;5054378;28;20029;-58
2021/05/21 00:52:06;;;;;;;5.53;1.08;;;;;;;;;;5036944;28;20089;-59
2021/05/21 00:54:32;;;;;;;1.48;0.80;;;;;;;;;;5054939;28;20108;-59
2021/05/21 00:56:58;;;;;;;2.28;1.15;;;;;;;;;;5054818;28;20035;-59
2021/05/21 00:59:27;;;;;;;2.95;1.50;;;;;;;;;;5053071;28;20025;-59
2021/05/21 01:01:56;;;;;;;1.38;0.80;;;;;;;;;;5036407;28;20029;-59
2021/05/21 01:04:22;;;;;;;1.48;0.73;;;;;;;;;;5036854;28;20029;-59
2021/05/21 01:06:48;;;;;;;1.73;0.80;;;;;;;;;;5054239;28;20066;-58
2021/05/21 01:09:15;;;;;;;3.03;0.98;;;;;;;;;;5053897;28;20031;-59
2021/05/21 01:11:41;;;;;;;2.90;1.00;;;;;;;;;;5036389;28;20025;-59
2021/05/21 01:14:07;;;;;;;3.30;1.05;;;;;;;;;;5054000;28;20025;-59
2021/05/21 01:16:36;;;;;;;2.45;1.15;;;;;;;;;;5054182;28;20422;-59
2021/05/21 01:19:05;;;;;;;2.13;1.08;;;;;;;;;;5054382;28;20364;-59
2021/05/21 01:21:40;;;;;;;4.53;1.23;;;;;;;;;;5036735;28;20409;-58
2021/05/21 01:24:09;;;;;;;2.70;1.20;;;;;;;;;;5054067;28;20025;-58
2021/05/21 01:26:38;;;;;;;2.30;0.98;;;;;;;;;;5054021;28;20056;-59
2021/05/21 01:29:08;;;;;;;2.33;1.23;;;;;;;;;;5035768;28;20516;-58
2021/05/21 01:31:38;;;;;;;1.90;1.10;;;;;;;;;;5054578;28;20108;-58
2021/05/21 01:34:04;;;;;;;3.00;1.33;;;;;;;;;;5053815;28;20428;-59
2021/05/21 01:36:31;;;;;;;2.90;1.27;;;;;;;;;;5053968;28;20477;-59
2021/05/21 01:38:59;;;;;;;1.77;1.08;;;;;;;;;;5052900;28;20070;-59
2021/05/21 01:41:31;;;;;;;1.95;1.10;;;;;;;;;;5053440;28;20033;-59
2021/05/21 01:43:57;;;;;;;2.03;1.17;;;;;;;;;;5035768;28;20063;-59
2021/05/21 01:46:24;;;;;;;1.90;1.10;;;;;;;;;;5053605;28;20036;-58
2021/05/21 01:48:50;;;;;;;2.90;1.10;;;;;;;;;;5035579;28;20025;-59
2021/05/21 01:51:16;;;;;;;2.20;1.35;;;;;;;;;;5054199;28;20505;-59
2021/05/21 01:53:46;;;;;;;1.73;0.90;;;;;;;;;;5035675;28;20390;-59
2021/05/21 01:56:12;;;;;;;1.92;1.25;;;;;;;;;;5036247;28;20049;-59
2021/05/21 01:58:38;;;;;;;2.85;1.67;;;;;;;;;;5035709;28;20025;-59
2021/05/21 02:01:05;;;;;;;3.85;1.67;;;;;;;;;;5036296;28;20021;-58
2021/05/21 02:03:37;;;;;;;2.88;1.63;;;;;;;;;;5035274;28;20364;-59
2021/05/21 02:06:04;;;;;;;2.08;1.33;;;;;;;;;;5035275;28;20543;-59
2021/05/21 02:08:35;;;;;;;2.10;1.15;;;;;;;;;;5068825;28;20048;-59
2021/05/21 02:11:01;;;;;;;2.00;1.13;;;;;;;;;;5035399;28;20033;-59
2021/05/21 02:13:27;;;;;;;1.50;0.88;;;;;;;;;;5053334;28;20124;-59
2021/05/21 02:15:56;;;;;;;1.65;1.10;;;;;;;;;;5053686;28;20057;-59
2021/05/21 02:18:22;;;;;;;1.38;0.93;;;;;;;;;;5052951;28;20033;-59
2021/05/21 02:20:48;;;;;;;1.20;0.70;;;;;;;;;;5054914;28;20025;-58
2021/05/21 02:23:17;;;;;;;1.80;1.08;;;;;;;;;;5039517;28;20147;-59
2021/05/21 02:25:43;;;;;;;1.45;0.80;;;;;;;;;;5057228;28;20086;-58
2021/05/21 02:28:10;;;;;;;1.35;0.82;;;;;;;;;;5039412;28;20029;-59
2021/05/21 02:30:36;;;;;;;1.40;0.80;;;;;;;;;;5057032;28;20025;-59
2021/05/21 02:33:05;;;;;;;1.85;1.02;;;;;;;;;;5057557;28;20025;-59
2021/05/21 02:35:41;;;;;;;3.20;1.23;;;;;;;;;;5057205;28;20025;-59
2021/05/21 02:38:07;;;;;;;1.63;0.77;;;;;;;;;;5039005;28;20021;-59
2021/05/21 02:40:37;;;;;;;1.10;0.68;;;;;;;;;;5057349;28;20067;-59
2021/05/21 02:43:13;;;;;;;2.08;0.90;;;;;;;;;;5038760;28;20048;-59
2021/05/21 02:45:43;;;;;;;3.22;0.93;;;;;;;;;;5057551;28;20024;-58
2021/05/21 02:48:21;;;;;;;2.30;1.05;;;;;;;;;;5038959;28;20489;-58
2021/05/21 02:50:50;;;;;;;1.40;0.88;;;;;;;;;;5038774;28;20021;-58
2021/05/21 02:53:19;;;;;;;1.65;0.60;;;;;;;;;;5056322;28;20363;-59
2021/05/21 02:55:45;;;;;;;2.05;0.90;;;;;;;;;;5038926;28;20029;-58
2021/05/21 02:58:11;;;;;;;1.30;0.90;;;;;;;;;;5038833;28;20033;-59
2021/05/21 03:00:38;;;;;;;2.17;0.65;;;;;;;;;;5056756;28;20029;-58
2021/05/21 03:03:04;;;;;;;1.95;1.00;;;;;;;;;;5038375;28;20032;-58
2021/05/21 03:05:33;;;;;;;8.93;1.20;;;;;;;;;;5071993;28;20451;-58
2021/05/21 03:08:02;;;;;;;1.63;1.00;;;;;;;;;;5038596;28;20422;-59
2021/05/21 03:10:29;;;;;;;2.78;1.33;;;;;;;;;;5038340;28;20039;-59
2021/05/21 03:12:57;;;;;;;2.85;1.20;;;;;;;;;;5057360;28;20033;-59
2021/05/21 03:15:26;;;;;;;1.25;0.70;;;;;;;;;;5056385;28;20028;-59
2021/05/21 03:17:54;;;;;;;2.25;0.95;;;;;;;;;;5039082;28;20516;-59
2021/05/21 03:20:21;;;;;;;2.40;1.10;;;;;;;;;;5038232;28;20163;-59
2021/05/21 03:22:56;;;;;;;1.70;0.98;;;;;;;;;;5038635;28;20041;-58
2021/05/21 03:25:26;;;;;;;1.40;0.90;;;;;;;;;;5054819;28;20037;-59
2021/05/21 03:27:54;;;;;;;1.42;0.73;;;;;;;;;;5055898;28;20471;-59
2021/05/21 03:30:20;;;;;;;1.30;0.50;;;;;;;;;;5056699;28;20025;-59
2021/05/21 03:32:49;;;;;;;1.38;0.77;;;;;;;;;;5038255;28;20041;-58
2021/05/21 03:35:15;;;;;;;1.65;1.10;;;;;;;;;;5055968;28;20029;-58
2021/05/21 03:37:42;;;;;;;1.08;0.52;;;;;;;;;;5056321;28;20028;-59
2021/05/21 03:40:11;;;;;;;1.58;0.90;;;;;;;;;;5038085;28;20454;-59
2021/05/21 03:42:37;;;;;;;9.45;1.27;;;;;;;;;;5034460;28;20053;-59
2021/05/21 03:45:07;;;;;;;2.35;1.23;;;;;;;;;;5036231;28;20087;-59
2021/05/21 03:47:33;;;;;;;1.40;0.80;;;;;;;;;;5050659;28;20033;-59
2021/05/21 03:50:02;;;;;;;1.90;0.70;;;;;;;;;;5035050;28;20438;-59
2021/05/21 03:52:31;;;;;;;2.17;0.77;;;;;;;;;;5036198;28;20025;-59
2021/05/21 03:54:57;;;;;;;2.58;0.98;;;;;;;;;;5051486;28;20029;-59
2021/05/21 03:57:24;;;;;;;1.95;0.80;;;;;;;;;;5035477;28;20026;-59
2021/05/21 03:59:59;;;;;;;1.33;0.80;;;;;;;;;;5035734;28;20026;-59
2021/05/21 04:02:25;;;;;;;2.90;0.90;;;;;;;;;;5034354;28;20061;-59
2021/05/21 04:04:54;;;;;;;1.10;0.50;;;;;;;;;;5036204;28;20509;-59
2021/05/21 04:07:23;;;;;;;1.98;0.82;;;;;;;;;;5034119;28;20075;-59
2021/05/21 04:09:49;;;;;;;1.85;0.88;;;;;;;;;;5035318;28;20475;-59
2021/05/21 04:12:16;;;;;;;1.60;1.00;;;;;;;;;;5036424;28;20036;-59
2021/05/21 04:14:42;;;;;;;1.52;1.02;;;;;;;;;;5034281;28;20455;-59
2021/05/21 04:17:08;;;;;;;6.22;1.02;;;;;;;;;;5035363;28;20033;-58
2021/05/21 04:19:34;;;;;;;1.98;0.80;;;;;;;;;;5035311;28;20029;-59
2021/05/21 04:22:03;;;;;;;1.98;0.80;;;;;;;;;;5035865;28;20040;-59
2021/05/21 04:24:37;;;;;;;1.30;0.80;;;;;;;;;;5035761;28;20033;-58
2021/05/21 04:27:03;;;;;;;1.60;0.90;;;;;;;;;;5033825;28;20087;-59
2021/05/21 04:29:29;;;;;;;1.77;1.10;;;;;;;;;;5034203;28;20049;-59
2021/05/21 04:31:55;;;;;;;1.92;0.90;;;;;;;;;;5035661;28;20037;-59
2021/05/21 04:34:24;;;;;;;2.75;1.17;;;;;;;;;;5035051;28;20028;-59
2021/05/21 04:36:50;;;;;;;1.00;0.82;;;;;;;;;;5035025;28;20104;-59
2021/05/21 04:39:17;;;;;;;1.90;0.88;;;;;;;;;;5035491;28;20024;-60
2021/05/21 04:41:43;;;;;;;1.25;0.73;;;;;;;;;;5037036;28;20483;-59
2021/05/21 04:44:11;;;;;;;1.35;0.75;;;;;;;;;;5036874;28;20033;-58
2021/05/21 04:46:40;;;;;;;2.63;0.93;;;;;;;;;;5036626;28;20025;-59
2021/05/21 04:49:06;;;;;;;1.75;1.02;;;;;;;;;;5036474;28;20021;-59
2021/05/21 04:51:35;;;;;;;5.22;1.42;;;;;;;;;;5055559;28;20105;-59
2021/05/21 04:54:05;;;;;;;1.45;0.88;;;;;;;;;;5036388;28;20033;-59
2021/05/21 04:56:31;;;;;;;1.75;0.73;;;;;;;;;;5054368;28;20378;-59
2021/05/21 04:58:57;;;;;;;1.63;0.90;;;;;;;;;;5036093;28;20025;-59
2021/05/21 05:01:24;;;;;;;2.38;0.95;;;;;;;;;;5055340;28;20028;-58
2021/05/21 05:03:53;;;;;;;2.47;0.60;;;;;;;;;;5054414;28;20065;-59
2021/05/21 05:06:21;;;;;;;1.08;0.77;;;;;;;;;;5054903;28;20065;-59
2021/05/21 05:08:47;;;;;;;1.20;0.65;;;;;;;;;;5053954;28;20075;-58
2021/05/21 05:11:14;;;;;;;2.38;0.75;;;;;;;;;;5037004;28;20035;-59
2021/05/21 05:13:43;;;;;;;1.05;0.68;;;;;;;;;;5053349;28;20536;-59
2021/05/21 05:16:09;;;;;;;1.02;0.68;;;;;;;;;;5036071;28;20048;-59
2021/05/21 05:18:35;;;;;;;1.50;0.70;;;;;;;;;;5035935;28;20119;-59
2021/05/21 05:21:05;;;;;;;0.57;0.40;;;;;;;;;;5054558;28;20025;-59
2021/05/21 05:23:32;;;;;;;4.13;1.30;;;;;;;;;;5036341;28;20386;-59
2021/05/21 05:26:11;;;;;;;1.42;0.88;;;;;;;;;;5035645;28;20033;-59
2021/05/21 05:28:38;;;;;;;3.00;0.88;;;;;;;;;;5054188;28;20409;-59
2021/05/21 05:31:06;;;;;;;2.08;0.90;;;;;;;;;;5054436;28;20052;-59
2021/05/21 05:33:33;;;;;;;1.70;0.85;;;;;;;;;;5053208;28;20025;-59
2021/05/21 05:36:03;;;;;;;1.65;0.82;;;;;;;;;;5053710;28;20025;-59
2021/05/21 05:38:30;;;;;;;1.13;0.52;;;;;;;;;;5053438;28;20033;-59
2021/05/21 05:41:02;;;;;;;1.83;0.80;;;;;;;;;;5053599;28;20027;-59
2021/05/21 05:43:39;;;;;;;2.72;0.70;;;;;;;;;;5054206;28;20059;-59
2021/05/21 05:46:09;;;;;;;2.92;0.77;;;;;;;;;;5053603;28;20049;-59
2021/05/21 05:48:36;;;;;;;1.33;0.75;;;;;;;;;;5035144;28;20037;-59
2021/05/21 05:51:02;;;;;;;1.23;0.55;;;;;;;;;;5035717;28;20029;-59
2021/05/21 05:53:33;;;;;;;2.13;1.02;;;;;;;;;;5053637;28;20032;-59
2021/05/21 05:56:05;;;;;;;2.45;0.98;;;;;;;;;;5053813;28;20037;-59
2021/05/21 05:58:34;;;;;;;1.17;0.65;;;;;;;;;;5034945;28;20021;-59
2021/05/21 06:01:00;;;;;;;2.03;1.10;;;;;;;;;;5053394;28;20021;-59
2021/05/21 06:03:28;;;;;;;1.30;0.70;;;;;;;;;;5053244;28;20378;-59
2021/05/21 06:05:55;;;;;;;2.63;1.13;;;;;;;;;;5035455;28;20515;-59
2021/05/21 06:08:21;;;;;;;1.35;0.65;;;;;;;;;;5035229;28;20370;-59
2021/05/21 06:10:47;;;;;;;1.85;0.85;;;;;;;;;;5053431;28;20039;-59
2021/05/21 06:13:16;;;;;;;2.75;1.15;;;;;;;;;;5035927;28;20029;-59
2021/05/21 06:15:45;;;;;;;1.42;0.75;;;;;;;;;;5035200;28;20437;-59
2021/05/21 06:18:14;;;;;;;1.25;0.70;;;;;;;;;;5053685;28;20031;-59
2021/05/21 06:20:40;;;;;;;0.93;0.57;;;;;;;;;;5053017;28;20097;-59
2021/05/21 06:23:15;;;;;;;1.30;0.55;;;;;;;;;;5053792;28;20033;-59
2021/05/21 06:28:18;;;;;;;2.55;1.00;;;;;;;;;;5053436;28;20111;-59
2021/05/21 06:30:47;;;;;;;6.10;1.15;;;;;;;;;;5052893;28;20079;-59
2021/05/21 06:33:16;;;;;;;1.85;0.80;;;;;;;;;;5035105;28;20033;-59
2021/05/21 06:35:43;;;;;;;0.82;0.43;;;;;;;;;;5035400;28;20025;-59
2021/05/21 06:38:12;;;;;;;3.72;0.88;;;;;;;;;;5053191;28;20060;-59
2021/05/21 06:40:42;;;;;;;2.70;1.10;;;;;;;;;;5053182;28;20022;-60
2021/05/21 06:43:17;;;;;;;2.20;1.25;;;;;;;;;;5052692;28;20048;-59
2021/05/21 06:45:43;;;;;;;1.63;0.60;;;;;;;;;;5035829;28;20394;-59
2021/05/21 06:48:12;;;;;;;1.63;0.70;;;;;;;;;;5052909;28;20025;-59
2021/05/21 06:50:39;;;;;;;1.33;0.68;;;;;;;;;;5053765;28;20465;-59
2021/05/21 06:53:05;;;;;;;2.67;0.98;;;;;;;;;;5053622;28;20028;-59
2021/05/21 06:55:31;;;;;;;2.97;1.00;;;;;;;;;;5034802;28;20029;-60
2021/05/21 06:57:57;;;;;;;2.28;1.38;;;;;;;;;;5034759;28;20025;-60
2021/05/21 07:00:38;;;;;;;2.10;0.80;;;;;;;;;;5052811;28;20025;-59
2021/05/21 07:03:04;;;;;;;3.42;1.23;;;;;;;;;;5052943;28;20033;-60
2021/05/21 07:05:30;;;;;;;2.35;0.65;;;;;;;;;;5052925;28;20060;-60
2021/05/21 07:07:56;;;;;;;1.63;0.80;;;;;;;;;;5038320;28;20032;-59
2021/05/21 07:10:22;;;;;;;6.45;1.33;;;;;;;;;;5056988;28;20021;-59
2021/05/21 07:12:48;;;;;;;1.40;0.90;;;;;;;;;;5057303;28;20043;-60
2021/05/21 07:15:14;;;;;;;3.25;1.02;;;;;;;;;;5056715;28;20104;-59
2021/05/21 07:17:41;;;;;;;1.42;0.80;;;;;;;;;;5056724;28;20086;-60
2021/05/21 07:20:11;;;;;;;1.27;0.65;;;;;;;;;;5056451;28;20025;-59
2021/05/21 07:22:40;;;;;;;;;;;;;;;;;;5056061;28;20041;-60
2021/05/21 07:25:07;;;;;;;3.80;1.05;;;;;;;;;;5038932;28;20325;-59
2021/05/21 07:27:33;;;;;;;1.58;0.82;;;;;;;;;;5056069;28;20468;-60
2021/05/21 07:29:59;;;;;;;6.72;1.20;;;;;;;;;;5038329;28;20057;-60
2021/05/21 07:32:28;;;;;;;1.73;0.77;;;;;;;;;;5038748;28;20033;-60
2021/05/21 07:34:54;;;;;;;1.35;0.80;;;;;;;;;;5055993;28;20025;-59
2021/05/21 07:37:20;;;;;;;1.40;0.40;;;;;;;;;;5038217;28;20024;-59
2021/05/21 07:39:49;;;;;;;2.22;0.68;;;;;;;;;;5038372;28;20025;-59
2021/05/21 07:42:15;;;;;;;2.17;1.10;;;;;;;;;;5055813;28;20049;-59
2021/05/21 07:44:41;;;;;;;1.50;0.60;;;;;;;;;;5037665;28;20368;-59
2021/05/21 07:47:07;;;;;;;1.88;0.65;;;;;;;;;;5055758;28;20151;-59
2021/05/21 07:49:33;;;;;;;1.90;0.60;;;;;;;;;;5056362;28;20052;-59
2021/05/21 07:51:59;;;;;;;2.17;0.90;;;;;;;;;;5055834;28;20032;-59
2021/05/21 07:54:26;;;;;;;1.17;0.47;;;;;;;;;;5055899;28;20021;-60
2021/05/21 07:56:52;;;;;;;2.33;0.55;;;;;;;;;;5071012;28;20032;-60
2021/05/21 07:59:18;;;;;;;1.27;0.57;;;;;;;;;;5037681;28;20036;-60
2021/05/21 08:01:44;;;;;;;2.00;0.77;;;;;;;;;;5037567;28;20025;-59
2021/05/21 08:04:10;;;;;;;4.38;0.80;;;;;;;;;;5056294;28;20095;-59
2021/05/21 08:06:38;;;;;;;1.30;0.90;;;;;;;;;;5055940;28;20439;-59
2021/05/21 08:09:05;;;;;;;4.07;0.73;;;;;;;;;;5055455;28;20021;-59
2021/05/21 08:11:32;;;;;;;2.10;0.52;;;;;;;;;;5055894;28;20032;-60
2021/05/21 08:13:58;;;;;;;1.67;0.73;;;;;;;;;;5037692;28;20120;-60
2021/05/21 08:16:27;;;;;;;0.75;0.32;;;;;;;;;;5054904;28;20467;-59
2021/05/21 08:18:53;;;;;;;1.15;0.60;;;;;;;;;;5054022;28;20025;-59
2021/05/21 08:21:19;;;;;;;1.98;0.82;;;;;;;;;;5037863;28;20057;-59
2021/05/21 08:23:45;;;;;;;1.33;0.68;;;;;;;;;;5055114;28;20120;-60
2021/05/21 08:26:11;;;;;;;1.50;0.70;;;;;;;;;;5037217;28;20131;-59
2021/05/21 08:28:38;;;;;;;1.15;0.50;;;;;;;;;;5037607;28;20375;-59
2021/05/21 08:31:04;;;;;;;1.23;0.70;;;;;;;;;;5038154;28;20336;-59
2021/05/21 08:33:35;;;;;;;1.02;0.55;;;;;;;;;;5055281;28;20032;-59
2021/05/21 08:36:01;;;;;;;3.15;1.00;;;;;;;;;;5070596;28;20044;-59
2021/05/21 08:38:27;;;;;;;1.33;0.63;;;;;;;;;;5036943;28;20025;-59
2021/05/21 08:40:53;;;;;;;1.70;0.63;;;;;;;;;;5054542;28;20022;-59
2021/05/21 08:43:19;;;;;;;0.95;0.50;;;;;;;;;;5070525;28;20080;-59
2021/05/21 08:45:45;;;;;;;0.95;0.50;;;;;;;;;;5054837;28;20534;-59
2021/05/21 08:48:18;;;;;;;1.52;0.57;;;;;;;;;;5054624;28;20025;-59
2021/05/21 08:50:44;;;;;;;4.75;0.80;;;;;;;;;;5037673;28;20112;-59
2021/05/21 08:53:11;;;;;;;2.15;0.80;;;;;;;;;;5070750;28;20448;-59
2021/05/21 08:55:37;;;;;;;0.95;0.70;;;;;;;;;;5054423;28;20035;-59
2021/05/21 08:58:03;;;;;;;6.07;1.35;;;;;;;;;;5054500;28;20029;-59
2021/05/21 09:00:29;;;;;;;4.40;1.23;;;;;;;;;;5055227;28;20025;-59
2021/05/21 09:02:55;;;;;;;1.35;0.70;;;;;;;;;;5054098;28;20123;-59
2021/05/21 09:05:21;;;;;;;0.90;0.50;;;;;;;;;;5053991;28;20059;-59
2021/05/21 09:07:50;;;;;;;1.73;0.80;;;;;;;;;;5054458;28;20033;-59
2021/05/21 09:10:18;;;;;;;3.78;0.45;;;;;;;;;;5055596;28;20025;-59
2021/05/21 09:12:46;;;;;;;2.67;0.75;;;;;;;;;;5054842;28;20029;-59
2021/05/21 09:15:17;;;;;;;2.50;0.50;;;;;;;;;;5036414;28;20031;-59
2021/05/21 09:17:53;;;;;;;0.70;0.47;;;;;;;;;;5054259;28;20394;-59
2021/05/21 09:20:40;;;;;;;2.35;1.10;;;;;;;;;;5053664;28;20466;-59
2021/05/21 09:23:07;;;;;;;2.20;0.57;;;;;;;;;;5055029;28;20029;-59
2021/05/21 09:25:47;;;;;;;3.15;0.40;;;;;;;;;;5054381;28;20017;-59
2021/05/21 09:28:33;;;;;;;1.48;0.43;;;;;;;;;;5035875;28;20390;-59
2021/05/21 09:31:21;;;;;;;0.90;0.35;;;;;;;;;;5036208;28;20033;-59
2021/05/21 09:33:49;;;;;;;1.15;0.45;;;;;;;;;;5036288;28;20024;-59
2021/05/21 09:36:25;;;;;;;0.93;0.40;;;;;;;;;;5035451;28;20025;-59
2021/05/21 09:38:58;;;;;;;1.17;0.50;;;;;;;;;;5053809;28;20036;-59
2021/05/21 09:41:25;;;;;;;3.13;0.88;;;;;;;;;;5036251;28;20033;-59
2021/05/21 09:43:51;;;;;;;1.40;0.50;;;;;;;;;;5052082;28;20436;-59
2021/05/21 09:46:18;;;;;;;0.47;0.20;;;;;;;;;;5036005;28;20032;-59
2021/05/21 09:48:44;;;;;;;1.70;0.60;;;;;;;;;;5053759;28;20028;-59
2021/05/21 09:51:10;;;;;;;1.65;0.52;;;;;;;;;;5068854;28;20033;-59
2021/05/21 09:53:37;;;;;;;1.25;0.60;;;;;;;;;;5053516;28;20033;-59
2021/05/21 09:56:06;;;;;;;0.75;0.40;;;;;;;;;;5054015;28;20025;-59
2021/05/21 09:58:33;;;;;;;1.67;0.77;;;;;;;;;;5035837;28;20036;-60
2021/05/21 10:01:19;;;;;;;1.73;0.60;;;;;;;;;;5036568;28;20048;-59
2021/05/21 10:03:49;;;;;;;0.85;0.50;;;;;;;;;;5052257;28;20127;-59
2021/05/21 10:06:16;;;;;;;1.93;0.80;;;;;;;;;;5035696;28;20052;-59
2021/05/21 10:08:47;;;;;;;0.63;0.30;;;;;;;;;;5035769;28;20031;-60
2021/05/21 10:11:13;;;;;;;;;;;;;;;;;;5054145;28;20387;-59
2021/05/21 10:13:43;;;;;;;0.77;0.30;;;;;;;;;;5053634;28;19904;-59
2021/05/21 10:16:13;;;;;;;0.60;0.32;;;;;;;;;;5053823;28;20021;-59
2021/05/21 10:18:43;;;;;;;0.77;0.47;;;;;;;;;;5053486;28;20028;-59
2021/05/21 10:21:10;;;;;;;0.90;0.40;;;;;;;;;;5052696;28;20059;-60
2021/05/21 10:23:38;;;;;;;1.58;0.30;;;;;;;;;;5035238;28;20083;-59
2021/05/21 10:26:20;;;;;;;0.57;0.35;;;;;;;;;;5035629;28;20107;-59
2021/05/21 10:28:47;;;;;;;1.08;0.45;;;;;;;;;;5035271;28;20052;-59
2021/05/21 10:31:14;;;;;;;1.35;0.40;;;;;;;;;;5035038;28;20033;-59
2021/05/21 10:33:43;;;;;;;1.35;0.52;;;;;;;;;;5035373;28;20033;-60
2021/05/21 10:36:24;;;;;;;1.83;0.70;;;;;;;;;;5035404;28;20033;-60
2021/05/21 10:39:09;;;;;;;5.88;0.50;;;;;;;;;;5053548;28;20021;-60
2021/05/21 10:41:44;;;;;;;0.80;0.52;;;;;;;;;;5054499;28;20402;-60
2021/05/21 10:44:23;;;;;;;0.68;0.28;;;;;;;;;;5039239;28;20037;-60
2021/05/21 10:46:50;;;;;;;1.00;0.45;;;;;;;;;;5057011;28;20036;-60
2021/05/21 10:49:22;;;;;;;4.15;2.63;;;;;;;;;;5056953;28;20025;-60
2021/05/21 10:51:55;;;;;;;0.52;0.20;;;;;;;;;;5057629;28;20059;-60
2021/05/21 10:54:34;;;;;;;1.38;0.85;;;;;;;;;;5056782;28;20028;-60
2021/05/21 10:57:13;;;;;;;1.60;0.60;;;;;;;;;;5056903;28;20025;-60
2021/05/21 11:00:00;;;;;;;0.80;0.32;;;;;;;;;;5038988;28;20032;-60
2021/05/21 11:02:27;;;;;;;1.08;0.40;;;;;;;;;;5056893;28;20029;-60
2021/05/21 11:04:54;;;;;;;1.88;0.50;;;;;;;;;;5056647;28;20028;-60
2021/05/21 11:07:39;;;;;;;0.77;0.35;;;;;;;;;;5039069;28;20029;-60
2021/05/21 11:10:08;;;;;;;1.65;0.52;;;;;;;;;;5056485;28;20021;-60
2021/05/21 11:12:43;;;;;;;0.73;0.40;;;;;;;;;;5038812;28;20029;-60
2021/05/21 11:15:09;;;;;;;2.83;0.60;;;;;;;;;;5039272;28;20033;-60
2021/05/21 11:17:35;;;;;;;0.88;0.47;;;;;;;;;;5056528;28;20032;-60
2021/05/21 11:20:02;;;;;;;1.77;0.60;;;;;;;;;;5038561;28;20029;-60
2021/05/21 11:22:31;;;;;;;0.90;0.40;;;;;;;;;;5056319;28;20056;-60
2021/05/21 11:25:00;;;;;;;0.95;0.40;;;;;;;;;;5038326;28;20037;-60
2021/05/21 11:27:27;;;;;;;0.50;0.30;;;;;;;;;;5038117;28;20036;-60
2021/05/21 11:29:54;;;;;;;0.98;0.45;;;;;;;;;;5038379;28;20035;-60
2021/05/21 11:32:21;;;;;;;0.80;0.30;;;;;;;;;;5056289;28;20013;-60
2021/05/21 11:34:47;;;;;;;1.38;0.35;;;;;;;;;;5056206;28;20048;-60
2021/05/21 11:37:20;;;;;;;1.65;0.50;;;;;;;;;;5038318;28;20059;-60
2021/05/21 11:39:46;;;;;;;2.53;0.65;;;;;;;;;;5056436;28;20163;-60
2021/05/21 11:42:15;;;;;;;0.35;0.20;;;;;;;;;;5038628;28;20132;-60
2021/05/21 11:44:46;;;;;;;0.90;0.38;;;;;;;;;;5056553;28;20128;-60
2021/05/21 11:47:12;;;;;;;0.93;0.38;;;;;;;;;;5056555;28;20146;-60
2021/05/21 11:49:38;;;;;;;1.77;0.40;;;;;;;;;;5038140;28;20463;-60
2021/05/21 11:52:10;;;;;;;1.60;0.65;;;;;;;;;;5056673;28;20032;-60
2021/05/21 11:54:40;;;;;;;4.07;0.50;;;;;;;;;;5071148;28;20103;-60
2021/05/21 11:57:06;;;;;;;;;;;;;;;;;;5056839;28;20410;-60
2021/05/21 11:59:35;;;;;;;1.00;0.30;;;;;;;;;;5055822;28;20003;-60
2021/05/21 12:02:02;;;;;;;0.65;0.38;;;;;;;;;;5055780;28;20017;-60
2021/05/21 12:04:38;;;;;;;1.38;0.65;;;;;;;;;;5037705;28;20370;-60
2021/05/21 12:07:04;;;;;;;0.88;0.30;;;;;;;;;;5038523;28;20025;-60
2021/05/21 12:09:31;;;;;;;1.25;0.60;;;;;;;;;;5055245;28;20032;-60
2021/05/21 12:11:57;;;;;;;0.30;0.13;;;;;;;;;;5037733;28;20044;-60
2021/05/21 12:14:24;;;;;;;1.13;0.47;;;;;;;;;;5055663;28;20032;-60
2021/05/21 12:16:53;;;;;;;1.15;0.52;;;;;;;;;;5055724;28;20060;-60
2021/05/21 12:19:19;;;;;;;3.30;0.57;;;;;;;;;;5055349;28;20084;-60
2021/05/21 12:21:50;;;;;;;0.77;0.38;;;;;;;;;;5038282;28;20029;-60
2021/05/21 12:24:20;;;;;;;0.50;0.30;;;;;;;;;;5055661;28;20031;-60
2021/05/21 12:26:48;;;;;;;0.68;0.40;;;;;;;;;;5055044;28;20025;-60
2021/05/21 12:29:14;;;;;;;1.63;0.50;;;;;;;;;;5071017;28;20029;-60
2021/05/21 12:31:46;;;;;;;1.10;0.50;;;;;;;;;;5070892;28;20025;-60
2021/05/21 12:34:31;;;;;;;0.95;0.45;;;;;;;;;;5055342;28;20067;-60
2021/05/21 12:36:57;;;;;;;1.13;0.43;;;;;;;;;;5055182;28;20036;-60
2021/05/21 12:39:29;;;;;;;1.92;0.43;;;;;;;;;;5055142;28;20025;-60
2021/05/21 12:41:55;;;;;;;0.77;0.57;;;;;;;;;;5054833;28;20471;-60
2021/05/21 12:44:21;;;;;;;0.80;0.30;;;;;;;;;;5038031;28;20367;-60
2021/05/21 12:46:49;;;;;;;1.95;0.57;;;;;;;;;;5036663;28;20028;-60
2021/05/21 12:49:19;;;;;;;0.98;0.45;;;;;;;;;;5036914;28;20040;-60
2021/05/21 12:51:52;;;;;;;1.97;0.53;;;;;;;;;;5054628;28;20029;-60
2021/05/21 12:54:23;;;;;;;1.70;0.40;;;;;;;;;;5054947;28;20025;-60
2021/05/21 12:56:55;;;;;;;0.95;0.40;;;;;;;;;;5036951;28;20418;-60
2021/05/21 12:59:21;;;;;;;1.27;0.47;;;;;;;;;;5054174;28;20025;-60
2021/05/21 13:01:47;;;;;;;1.08;0.45;;;;;;;;;;5037361;28;20032;-60
2021/05/21 13:04:14;;;;;;;1.00;0.40;;;;;;;;;;5036179;28;20024;-60
2021/05/21 13:06:40;;;;;;;0.30;0.10;;;;;;;;;;5053853;28;20025;-60
2021/05/21 13:09:08;;;;;;;1.38;0.50;;;;;;;;;;5036425;28;20025;-60
2021/05/21 13:11:54;;;;;;;1.50;0.55;;;;;;;;;;5055116;28;20075;-59
2021/05/21 13:14:21;;;;;;;0.63;0.30;;;;;;;;;;5054118;28;20025;-60
2021/05/21 13:16:50;;;;;;;0.90;0.40;;;;;;;;;;5069524;28;20115;-60
2021/05/21 13:19:25;;;;;;;4.50;0.60;;;;;;;;;;5054265;28;20035;-60
2021/05/21 13:21:52;;;;;;;0.55;0.35;;;;;;;;;;5054480;28;20360;-60
2021/05/21 13:24:21;;;;;;;0.90;0.40;;;;;;;;;;5054034;28;20087;-60
2021/05/21 13:26:48;;;;;;;1.17;0.55;;;;;;;;;;5054034;28;20029;-60
2021/05/21 13:29:14;;;;;;;1.10;0.40;;;;;;;;;;5069452;28;20021;-60
2021/05/21 13:31:40;;;;;;;0.85;0.38;;;;;;;;;;5053991;28;20482;-60
2021/05/21 13:34:06;;;;;;;5.93;0.60;;;;;;;;;;5035911;28;20021;-60
2021/05/21 13:36:32;;;;;;;3.13;0.93;;;;;;;;;;5036001;28;20071;-60
2021/05/21 13:38:59;;;;;;;2.25;0.40;;;;;;;;;;5069326;28;20032;-60
2021/05/21 13:41:26;;;;;;;1.40;0.35;;;;;;;;;;5036025;28;20051;-60
2021/05/21 13:43:52;;;;;;;6.32;0.40;;;;;;;;;;5053491;28;20390;-60
2021/05/21 13:46:18;;;;;;;1.27;0.68;;;;;;;;;;5035841;28;20532;-60
2021/05/21 13:48:44;;;;;;;0.90;0.40;;;;;;;;;;5035564;28;20506;-60
2021/05/21 13:51:10;;;;;;;1.30;0.30;;;;;;;;;;5053663;28;20052;-60
2021/05/21 13:53:36;;;;;;;1.05;0.40;;;;;;;;;;5053969;28;20086;-60
2021/05/21 13:56:06;;;;;;;1.80;0.70;;;;;;;;;;5069046;28;20418;-60
2021/05/21 13:58:34;;;;;;;3.47;0.80;;;;;;;;;;5035651;28;20451;-60
2021/05/21 14:01:00;;;;;;;1.40;0.60;;;;;;;;;;5053607;28;20020;-60
2021/05/21 14:03:26;;;;;;;0.70;0.40;;;;;;;;;;5053714;28;20363;-60
2021/05/21 14:05:52;;;;;;;0.63;0.30;;;;;;;;;;5036486;28;20359;-60
2021/05/21 14:08:19;;;;;;;0.45;0.38;;;;;;;;;;5054061;28;20409;-60
2021/05/21 14:10:47;;;;;;;5.38;0.63;;;;;;;;;;5053453;28;20029;-60
2021/05/21 14:13:13;;;;;;;0.57;0.30;;;;;;;;;;5054139;28;20378;-60
2021/05/21 14:15:42;;;;;;;1.33;0.60;;;;;;;;;;5069627;28;20056;-60
2021/05/21 14:18:08;;;;;;;2.03;0.90;;;;;;;;;;5057346;28;20051;-60
2021/05/21 14:20:37;;;;;;;2.40;0.68;;;;;;;;;;5073125;28;20360;-60
2021/05/21 14:23:04;;;;;;;1.15;0.40;;;;;;;;;;5040225;28;20029;-60
2021/05/21 14:25:34;;;;;;;3.05;0.65;;;;;;;;;;5057465;28;20037;-60
2021/05/21 14:28:00;;;;;;;1.10;0.50;;;;;;;;;;5057804;28;20032;-60
2021/05/21 14:30:27;;;;;;;1.08;0.50;;;;;;;;;;5057984;28;20032;-59
2021/05/21 14:32:56;;;;;;;1.33;0.35;;;;;;;;;;5039245;28;20020;-59
2021/05/21 14:35:22;;;;;;;0.60;0.40;;;;;;;;;;5056973;28;20029;-60
2021/05/21 14:37:48;;;;;;;0.82;0.45;;;;;;;;;;5072362;28;20033;-60
2021/05/21 14:40:15;;;;;;;1.90;0.43;;;;;;;;;;5057142;28;20022;-60
2021/05/21 14:42:46;;;;;;;0.77;0.38;;;;;;;;;;5056703;28;20041;-60
2021/05/21 14:45:13;;;;;;;1.65;0.50;;;;;;;;;;5056784;28;20037;-60
2021/05/21 14:47:39;;;;;;;0.80;0.35;;;;;;;;;;5039146;28;20083;-60
2021/05/21 14:50:07;;;;;;;1.20;0.30;;;;;;;;;;5038898;28;20025;-60
2021/05/21 14:52:33;;;;;;;1.90;0.63;;;;;;;;;;5057554;28;20112;-60